UAL1841 KSMF-KDEN
Flight info
| Callsign | UAL1841 |
|---|---|
| Flight time | 1h 50m |
| Altitude | 37000 |
| Route | SCTWN4 MACUS Q124 BVL TCH KAMPR LONGZ4 |
| Aircraft | A320/M-SDE3FGHIRWY/LB1 |
Departure
| Time | 2026-05-09 01:32 |
|---|---|
| Airport | Sacramento International Airport (KSMF) |
Arrival
| Time | 2026-05-09 03:22 |
|---|---|
| Airport | Denver International Airport (KDEN) |
| Time | Latitude | Longitude | Altitude | Speed | Heading |
|---|---|---|---|---|---|
| 2026-05-09 01:20 | 38.69499 | -121.58747 | 29 ft | 0 kts | 181° |
| 2026-05-09 01:25 | 38.69504 | -121.58746 | 29 ft | 4 kts | 181° |
| 2026-05-09 01:25 | 38.69531 | -121.58746 | 29 ft | 4 kts | 178° |
| 2026-05-09 01:26 | 38.69558 | -121.58748 | 29 ft | 4 kts | 175° |
| 2026-05-09 01:26 | 38.69585 | -121.58752 | 29 ft | 4 kts | 167° |
| 2026-05-09 01:26 | 38.69609 | -121.58764 | 29 ft | 4 kts | 138° |
| 2026-05-09 01:26 | 38.69618 | -121.58781 | 29 ft | 1 kts | 91° |
| 2026-05-09 01:27 | 38.69618 | -121.58785 | 29 ft | 0 kts | 91° |
| 2026-05-09 01:28 | 38.69618 | -121.58783 | 29 ft | 1 kts | 91° |
| 2026-05-09 01:28 | 38.69618 | -121.58749 | 29 ft | 6 kts | 91° |
| 2026-05-09 01:28 | 38.69617 | -121.58674 | 29 ft | 11 kts | 90° |
| 2026-05-09 01:28 | 38.69616 | -121.58557 | 29 ft | 15 kts | 91° |
| 2026-05-09 01:29 | 38.69614 | -121.58420 | 29 ft | 16 kts | 91° |
| 2026-05-09 01:29 | 38.69630 | -121.58296 | 29 ft | 13 kts | 34° |
| 2026-05-09 01:29 | 38.69727 | -121.58287 | 29 ft | 17 kts | 2° |
| 2026-05-09 01:29 | 38.69860 | -121.58284 | 29 ft | 20 kts | 0° |
| 2026-05-09 01:30 | 38.70001 | -121.58281 | 29 ft | 21 kts | 0° |
| 2026-05-09 01:30 | 38.70150 | -121.58280 | 29 ft | 22 kts | 0° |
| 2026-05-09 01:30 | 38.70308 | -121.58277 | 29 ft | 24 kts | 0° |
| 2026-05-09 01:30 | 38.70479 | -121.58274 | 29 ft | 26 kts | 1° |
| 2026-05-09 01:31 | 38.70614 | -121.58272 | 29 ft | 16 kts | 0° |
| 2026-05-09 01:31 | 38.70698 | -121.58220 | 29 ft | 14 kts | 73° |
| 2026-05-09 01:31 | 38.70701 | -121.58083 | 29 ft | 16 kts | 90° |
| 2026-05-09 01:31 | 38.70641 | -121.58007 | 29 ft | 17 kts | 180° |
| 2026-05-09 01:32 | 38.70271 | -121.58014 | 29 ft | 95 kts | 181° |
| 2026-05-09 01:32 | 38.69365 | -121.58032 | 35 ft | 162 kts | 181° |
| 2026-05-09 01:32 | 38.68191 | -121.58050 | 725 ft | 171 kts | 180° |
| 2026-05-09 01:32 | 38.67093 | -121.57513 | 1612 ft | 176 kts | 134° |
| 2026-05-09 01:33 | 38.66499 | -121.56116 | 2040 ft | 189 kts | 110° |
| 2026-05-09 01:33 | 38.65996 | -121.54457 | 2294 ft | 212 kts | 110° |
| 2026-05-09 01:33 | 38.65431 | -121.52595 | 2568 ft | 237 kts | 110° |
| 2026-05-09 01:33 | 38.64792 | -121.50531 | 2988 ft | 261 kts | 110° |
| 2026-05-09 01:34 | 38.64095 | -121.48327 | 3720 ft | 272 kts | 111° |
| 2026-05-09 01:34 | 38.63380 | -121.46073 | 4631 ft | 275 kts | 109° |
| 2026-05-09 01:34 | 38.63083 | -121.43668 | 5473 ft | 277 kts | 88° |
| 2026-05-09 01:34 | 38.63147 | -121.41197 | 6379 ft | 279 kts | 87° |
| 2026-05-09 01:35 | 38.63224 | -121.38702 | 7198 ft | 283 kts | 87° |
| 2026-05-09 01:35 | 38.63302 | -121.36172 | 8002 ft | 287 kts | 87° |
| 2026-05-09 01:35 | 38.63376 | -121.33598 | 8788 ft | 292 kts | 87° |
| 2026-05-09 01:35 | 38.63448 | -121.30979 | 9569 ft | 297 kts | 88° |
| 2026-05-09 01:36 | 38.63518 | -121.28320 | 10298 ft | 301 kts | 88° |
| 2026-05-09 01:36 | 38.63589 | -121.25590 | 10752 ft | 317 kts | 88° |
| 2026-05-09 01:36 | 38.63665 | -121.22669 | 10945 ft | 340 kts | 88° |
| 2026-05-09 01:36 | 38.63745 | -121.19560 | 11240 ft | 357 kts | 88° |
| 2026-05-09 01:37 | 38.63823 | -121.16355 | 11814 ft | 364 kts | 88° |
| 2026-05-09 01:37 | 38.63899 | -121.13102 | 12461 ft | 368 kts | 88° |
| 2026-05-09 01:37 | 38.63974 | -121.09812 | 13119 ft | 372 kts | 88° |
| 2026-05-09 01:37 | 38.64051 | -121.06483 | 13772 ft | 376 kts | 88° |
| 2026-05-09 01:38 | 38.64130 | -121.03117 | 14335 ft | 381 kts | 88° |
| 2026-05-09 01:38 | 38.64210 | -120.99715 | 14904 ft | 385 kts | 88° |
| 2026-05-09 01:38 | 38.64291 | -120.96284 | 15468 ft | 389 kts | 88° |
| 2026-05-09 01:38 | 38.64370 | -120.92808 | 16054 ft | 393 kts | 88° |
| 2026-05-09 01:39 | 38.64447 | -120.89292 | 16609 ft | 398 kts | 88° |
| 2026-05-09 01:39 | 38.64525 | -120.85736 | 17172 ft | 402 kts | 88° |
| 2026-05-09 01:39 | 38.64602 | -120.82139 | 17736 ft | 407 kts | 88° |
| 2026-05-09 01:39 | 38.64678 | -120.78500 | 18328 ft | 411 kts | 88° |
| 2026-05-09 01:40 | 38.64872 | -120.74885 | 18843 ft | 415 kts | 80° |
| 2026-05-09 01:40 | 38.65587 | -120.71302 | 19373 ft | 418 kts | 68° |
| 2026-05-09 01:40 | 38.66842 | -120.67946 | 19904 ft | 420 kts | 56° |
| 2026-05-09 01:40 | 38.68582 | -120.64949 | 20526 ft | 421 kts | 47° |
| 2026-05-09 01:41 | 38.70499 | -120.62094 | 21062 ft | 425 kts | 47° |
| 2026-05-09 01:41 | 38.72429 | -120.59211 | 21587 ft | 428 kts | 47° |
| 2026-05-09 01:41 | 38.74397 | -120.56259 | 22093 ft | 432 kts | 47° |
| 2026-05-09 01:41 | 38.76322 | -120.53363 | 22562 ft | 435 kts | 47° |
| 2026-05-09 01:42 | 38.78296 | -120.50387 | 23031 ft | 439 kts | 47° |
| 2026-05-09 01:42 | 38.80278 | -120.47391 | 23500 ft | 442 kts | 47° |
| 2026-05-09 01:42 | 38.82275 | -120.44375 | 23926 ft | 446 kts | 46° |
| 2026-05-09 01:42 | 38.84290 | -120.41331 | 24284 ft | 450 kts | 46° |
| 2026-05-09 01:43 | 38.86320 | -120.38261 | 24680 ft | 453 kts | 46° |
| 2026-05-09 01:43 | 38.88363 | -120.35170 | 25054 ft | 455 kts | 46° |
| 2026-05-09 01:43 | 38.90417 | -120.32061 | 25425 ft | 458 kts | 46° |
| 2026-05-09 01:43 | 38.92477 | -120.28938 | 25789 ft | 461 kts | 45° |
| 2026-05-09 01:44 | 38.94554 | -120.25791 | 26176 ft | 463 kts | 45° |
| 2026-05-09 01:44 | 38.96642 | -120.22625 | 26553 ft | 466 kts | 45° |
| 2026-05-09 01:44 | 38.98740 | -120.19438 | 26928 ft | 468 kts | 45° |
| 2026-05-09 01:44 | 39.00845 | -120.16226 | 27294 ft | 471 kts | 45° |
| 2026-05-09 01:45 | 39.02965 | -120.12985 | 27656 ft | 474 kts | 45° |
| 2026-05-09 01:45 | 39.05087 | -120.09740 | 28033 ft | 476 kts | 45° |
| 2026-05-09 01:45 | 39.07225 | -120.06470 | 28385 ft | 479 kts | 44° |
| 2026-05-09 01:45 | 39.09375 | -120.03183 | 28721 ft | 481 kts | 44° |
| 2026-05-09 01:46 | 39.11536 | -119.99877 | 29049 ft | 484 kts | 44° |
| 2026-05-09 01:46 | 39.13708 | -119.96553 | 29337 ft | 486 kts | 44° |
| 2026-05-09 01:46 | 39.15891 | -119.93213 | 29652 ft | 489 kts | 44° |
| 2026-05-09 01:46 | 39.18084 | -119.89855 | 30068 ft | 490 kts | 44° |
| 2026-05-09 01:47 | 39.20273 | -119.86489 | 30455 ft | 490 kts | 44° |
| 2026-05-09 01:47 | 39.22459 | -119.83118 | 30833 ft | 490 kts | 44° |
| 2026-05-09 01:47 | 39.24614 | -119.79793 | 31222 ft | 489 kts | 44° |
| 2026-05-09 01:47 | 39.26820 | -119.76385 | 31638 ft | 488 kts | 44° |
| 2026-05-09 01:48 | 39.28988 | -119.73033 | 32035 ft | 487 kts | 44° |
| 2026-05-09 01:48 | 39.31160 | -119.69675 | 32420 ft | 487 kts | 43° |
| 2026-05-09 01:48 | 39.33330 | -119.66320 | 32811 ft | 486 kts | 43° |
| 2026-05-09 01:48 | 39.35499 | -119.62962 | 33150 ft | 487 kts | 43° |
| 2026-05-09 01:49 | 39.37638 | -119.59646 | 33520 ft | 486 kts | 43° |
| 2026-05-09 01:49 | 39.39800 | -119.56286 | 33946 ft | 486 kts | 43° |
| 2026-05-09 01:49 | 39.41958 | -119.52931 | 34344 ft | 485 kts | 43° |
| 2026-05-09 01:49 | 39.44112 | -119.49582 | 34726 ft | 484 kts | 43° |
| 2026-05-09 01:50 | 39.46259 | -119.46239 | 35079 ft | 482 kts | 43° |
| 2026-05-09 01:50 | 39.48400 | -119.42903 | 35428 ft | 481 kts | 43° |
| 2026-05-09 01:50 | 39.50564 | -119.39529 | 35776 ft | 480 kts | 44° |
| 2026-05-09 01:50 | 39.52665 | -119.36250 | 36128 ft | 479 kts | 44° |
| 2026-05-09 01:51 | 39.54786 | -119.32935 | 36383 ft | 479 kts | 44° |
| 2026-05-09 01:51 | 39.56913 | -119.29609 | 36644 ft | 479 kts | 44° |
| 2026-05-09 01:51 | 39.59039 | -119.26284 | 36903 ft | 479 kts | 44° |
| 2026-05-09 01:51 | 39.61170 | -119.22949 | 36973 ft | 483 kts | 44° |
| 2026-05-09 01:52 | 39.65496 | -119.16159 | 36968 ft | 492 kts | 44° |
| 2026-05-09 01:52 | 39.69856 | -119.09274 | 36961 ft | 494 kts | 44° |
| 2026-05-09 01:53 | 39.74224 | -119.02377 | 36963 ft | 494 kts | 44° |
| 2026-05-09 01:53 | 39.78590 | -118.95474 | 36981 ft | 494 kts | 44° |
| 2026-05-09 01:54 | 39.82958 | -118.88562 | 36982 ft | 495 kts | 44° |
| 2026-05-09 01:54 | 39.87313 | -118.81617 | 37034 ft | 497 kts | 47° |
| 2026-05-09 01:55 | 39.90884 | -118.73806 | 37047 ft | 506 kts | 57° |
| 2026-05-09 01:55 | 39.94179 | -118.65689 | 37069 ft | 507 kts | 57° |
| 2026-05-09 01:56 | 39.97482 | -118.57564 | 37083 ft | 507 kts | 57° |
| 2026-05-09 01:56 | 40.00792 | -118.49424 | 37083 ft | 507 kts | 57° |
| 2026-05-09 01:57 | 40.04088 | -118.41290 | 37074 ft | 508 kts | 57° |
| 2026-05-09 01:57 | 40.07384 | -118.33139 | 37062 ft | 508 kts | 57° |
| 2026-05-09 01:58 | 40.10680 | -118.24972 | 36985 ft | 508 kts | 57° |
| 2026-05-09 01:58 | 40.13955 | -118.16807 | 36984 ft | 508 kts | 57° |
| 2026-05-09 01:59 | 40.17228 | -118.08628 | 36982 ft | 508 kts | 57° |
| 2026-05-09 01:59 | 40.20306 | -118.00298 | 36993 ft | 513 kts | 66° |
| 2026-05-09 02:00 | 40.22427 | -117.91338 | 36987 ft | 516 kts | 69° |
| 2026-05-09 02:00 | 40.24516 | -117.82350 | 36990 ft | 516 kts | 68° |
| 2026-05-09 02:01 | 40.26261 | -117.74876 | 36981 ft | 516 kts | 69° |
| 2026-05-09 02:01 | 40.28352 | -117.65878 | 36989 ft | 518 kts | 69° |
| 2026-05-09 02:02 | 40.30439 | -117.56839 | 36999 ft | 518 kts | 69° |
| 2026-05-09 02:02 | 40.32515 | -117.47806 | 36998 ft | 517 kts | 69° |
| 2026-05-09 02:03 | 40.34588 | -117.38781 | 37010 ft | 517 kts | 69° |
| 2026-05-09 02:03 | 40.36649 | -117.29759 | 37006 ft | 517 kts | 69° |
| 2026-05-09 02:04 | 40.38699 | -117.20721 | 37005 ft | 517 kts | 69° |
| 2026-05-09 02:04 | 40.40741 | -117.11679 | 37052 ft | 517 kts | 69° |
| 2026-05-09 02:05 | 40.42784 | -117.02636 | 37073 ft | 517 kts | 69° |
| 2026-05-09 02:05 | 40.44820 | -116.93588 | 37093 ft | 517 kts | 69° |
| 2026-05-09 02:06 | 40.46848 | -116.84530 | 37119 ft | 517 kts | 69° |
| 2026-05-09 02:07 | 40.49868 | -116.70926 | 37096 ft | 517 kts | 69° |
| 2026-05-09 02:07 | 40.51861 | -116.61914 | 37073 ft | 517 kts | 69° |
| 2026-05-09 02:08 | 40.53859 | -116.52840 | 37046 ft | 517 kts | 70° |
| 2026-05-09 02:08 | 40.55846 | -116.43764 | 37022 ft | 516 kts | 70° |
| 2026-05-09 02:09 | 40.57111 | -116.34434 | 37021 ft | 521 kts | 81° |
| 2026-05-09 02:09 | 40.57839 | -116.24949 | 37031 ft | 521 kts | 81° |
| 2026-05-09 02:10 | 40.58570 | -116.15481 | 37027 ft | 520 kts | 82° |
| 2026-05-09 02:10 | 40.59290 | -116.06012 | 37026 ft | 520 kts | 82° |
| 2026-05-09 02:11 | 40.59998 | -115.96547 | 37011 ft | 519 kts | 82° |
| 2026-05-09 02:11 | 40.60698 | -115.87096 | 37029 ft | 518 kts | 82° |
| 2026-05-09 02:12 | 40.61393 | -115.77661 | 37034 ft | 517 kts | 82° |
| 2026-05-09 02:12 | 40.62083 | -115.68238 | 37035 ft | 517 kts | 82° |
| 2026-05-09 02:13 | 40.62759 | -115.58823 | 37049 ft | 516 kts | 82° |
| 2026-05-09 02:13 | 40.63426 | -115.49412 | 37049 ft | 516 kts | 82° |
| 2026-05-09 02:14 | 40.64084 | -115.40015 | 37035 ft | 515 kts | 82° |
| 2026-05-09 02:14 | 40.64730 | -115.30628 | 37055 ft | 515 kts | 82° |
| 2026-05-09 02:15 | 40.65379 | -115.21244 | 37024 ft | 514 kts | 82° |
| 2026-05-09 02:15 | 40.66018 | -115.11918 | 37015 ft | 515 kts | 83° |
| 2026-05-09 02:16 | 40.66641 | -115.02520 | 37018 ft | 515 kts | 83° |
| 2026-05-09 02:16 | 40.67257 | -114.93116 | 37027 ft | 515 kts | 83° |
| 2026-05-09 02:17 | 40.67867 | -114.83709 | 37023 ft | 515 kts | 83° |
| 2026-05-09 02:17 | 40.68472 | -114.74300 | 36988 ft | 515 kts | 83° |
| 2026-05-09 02:18 | 40.69070 | -114.64904 | 37009 ft | 515 kts | 83° |
| 2026-05-09 02:18 | 40.69662 | -114.55501 | 37017 ft | 515 kts | 83° |
| 2026-05-09 02:19 | 40.70221 | -114.46099 | 37023 ft | 515 kts | 84° |
| 2026-05-09 02:19 | 40.70584 | -114.36670 | 37023 ft | 515 kts | 86° |
| 2026-05-09 02:20 | 40.70861 | -114.27236 | 37023 ft | 515 kts | 86° |
| 2026-05-09 02:20 | 40.71172 | -114.17814 | 37041 ft | 514 kts | 85° |
| 2026-05-09 02:21 | 40.71518 | -114.08403 | 37047 ft | 515 kts | 85° |
| 2026-05-09 02:21 | 40.71847 | -113.99043 | 37051 ft | 514 kts | 86° |
| 2026-05-09 02:22 | 40.72166 | -113.89625 | 37050 ft | 514 kts | 86° |
| 2026-05-09 02:22 | 40.72467 | -113.80211 | 37020 ft | 514 kts | 86° |
| 2026-05-09 02:23 | 40.72838 | -113.70808 | 36981 ft | 513 kts | 84° |
| 2026-05-09 02:23 | 40.73565 | -113.61478 | 36936 ft | 511 kts | 81° |
| 2026-05-09 02:24 | 40.74403 | -113.52204 | 36930 ft | 509 kts | 81° |
| 2026-05-09 02:24 | 40.75161 | -113.42922 | 36928 ft | 509 kts | 82° |
| 2026-05-09 02:25 | 40.75834 | -113.33647 | 36942 ft | 507 kts | 83° |
| 2026-05-09 02:25 | 40.76486 | -113.24399 | 36937 ft | 506 kts | 83° |
| 2026-05-09 02:26 | 40.77153 | -113.15174 | 36930 ft | 505 kts | 83° |
| 2026-05-09 02:26 | 40.77817 | -113.05970 | 36935 ft | 504 kts | 83° |
| 2026-05-09 02:27 | 40.78475 | -112.96754 | 36933 ft | 504 kts | 83° |
| 2026-05-09 02:27 | 40.79125 | -112.87537 | 36927 ft | 504 kts | 83° |
| 2026-05-09 02:28 | 40.79765 | -112.78383 | 36922 ft | 504 kts | 83° |
| 2026-05-09 02:28 | 40.80403 | -112.69163 | 36930 ft | 505 kts | 83° |
| 2026-05-09 02:29 | 40.81034 | -112.59936 | 36926 ft | 505 kts | 83° |
| 2026-05-09 02:29 | 40.81650 | -112.50713 | 36921 ft | 505 kts | 83° |
| 2026-05-09 02:30 | 40.82258 | -112.41471 | 36930 ft | 505 kts | 83° |
| 2026-05-09 02:30 | 40.82864 | -112.32235 | 36953 ft | 505 kts | 83° |
| 2026-05-09 02:31 | 40.83458 | -112.22997 | 36979 ft | 505 kts | 83° |
| 2026-05-09 02:31 | 40.84051 | -112.13757 | 37001 ft | 505 kts | 83° |
| 2026-05-09 02:32 | 40.84629 | -112.04527 | 37029 ft | 503 kts | 84° |
| 2026-05-09 02:32 | 40.84898 | -111.95300 | 37032 ft | 504 kts | 93° |
| 2026-05-09 02:33 | 40.84443 | -111.86074 | 37029 ft | 503 kts | 93° |
| 2026-05-09 02:33 | 40.83983 | -111.76857 | 37022 ft | 503 kts | 93° |
| 2026-05-09 02:34 | 40.83528 | -111.67656 | 37010 ft | 501 kts | 93° |
| 2026-05-09 02:34 | 40.83067 | -111.58472 | 36997 ft | 501 kts | 93° |
| 2026-05-09 02:35 | 40.82596 | -111.49296 | 37005 ft | 501 kts | 93° |
| 2026-05-09 02:35 | 40.82117 | -111.40126 | 37020 ft | 500 kts | 93° |
| 2026-05-09 02:36 | 40.81630 | -111.30957 | 37024 ft | 501 kts | 93° |
| 2026-05-09 02:36 | 40.81136 | -111.21800 | 37036 ft | 500 kts | 93° |
| 2026-05-09 02:37 | 40.80638 | -111.12702 | 37057 ft | 500 kts | 93° |
| 2026-05-09 02:37 | 40.80129 | -111.03554 | 37061 ft | 499 kts | 94° |
| 2026-05-09 02:38 | 40.79615 | -110.94418 | 37069 ft | 499 kts | 94° |
| 2026-05-09 02:38 | 40.79093 | -110.85292 | 37078 ft | 498 kts | 94° |
| 2026-05-09 02:39 | 40.78564 | -110.76179 | 37089 ft | 498 kts | 94° |
| 2026-05-09 02:39 | 40.78029 | -110.67065 | 37086 ft | 498 kts | 94° |
| 2026-05-09 02:40 | 40.77490 | -110.57955 | 37087 ft | 498 kts | 94° |
| 2026-05-09 02:40 | 40.76947 | -110.48846 | 37086 ft | 498 kts | 94° |
| 2026-05-09 02:41 | 40.76384 | -110.39736 | 37078 ft | 499 kts | 94° |
| 2026-05-09 02:41 | 40.75812 | -110.30614 | 37062 ft | 499 kts | 93° |
| 2026-05-09 02:42 | 40.75243 | -110.21489 | 37059 ft | 499 kts | 94° |
| 2026-05-09 02:42 | 40.74671 | -110.12366 | 37063 ft | 500 kts | 93° |
| 2026-05-09 02:43 | 40.74084 | -110.03226 | 37009 ft | 501 kts | 93° |
| 2026-05-09 02:43 | 40.73485 | -109.94061 | 37012 ft | 502 kts | 93° |
| 2026-05-09 02:44 | 40.72884 | -109.84952 | 36986 ft | 502 kts | 93° |
| 2026-05-09 02:44 | 40.72276 | -109.75770 | 37001 ft | 503 kts | 93° |
| 2026-05-09 02:45 | 40.71654 | -109.66610 | 36985 ft | 502 kts | 93° |
| 2026-05-09 02:45 | 40.71024 | -109.57441 | 36951 ft | 502 kts | 93° |
| 2026-05-09 02:46 | 40.70385 | -109.48305 | 36970 ft | 501 kts | 93° |
| 2026-05-09 02:46 | 40.69747 | -109.39177 | 36971 ft | 500 kts | 93° |
| 2026-05-09 02:47 | 40.69117 | -109.30070 | 36961 ft | 499 kts | 93° |
| 2026-05-09 02:47 | 40.68474 | -109.20985 | 36959 ft | 498 kts | 93° |
| 2026-05-09 02:48 | 40.67817 | -109.11916 | 36972 ft | 498 kts | 93° |
| 2026-05-09 02:48 | 40.67146 | -109.02843 | 36946 ft | 498 kts | 93° |
| 2026-05-09 02:49 | 40.66541 | -108.93762 | 36953 ft | 498 kts | 92° |
| 2026-05-09 02:49 | 40.65986 | -108.84670 | 36946 ft | 498 kts | 92° |
| 2026-05-09 02:50 | 40.65518 | -108.77112 | 36954 ft | 498 kts | 92° |
| 2026-05-09 02:50 | 40.64922 | -108.68024 | 36941 ft | 498 kts | 92° |
| 2026-05-09 02:51 | 40.64314 | -108.58947 | 36947 ft | 497 kts | 92° |
| 2026-05-09 02:51 | 40.63714 | -108.49810 | 36939 ft | 497 kts | 92° |
| 2026-05-09 02:52 | 40.63083 | -108.40756 | 36951 ft | 497 kts | 92° |
| 2026-05-09 02:52 | 40.62446 | -108.31756 | 36935 ft | 497 kts | 92° |
| 2026-05-09 02:53 | 40.61813 | -108.22700 | 36935 ft | 497 kts | 92° |
| 2026-05-09 02:53 | 40.61182 | -108.13646 | 36947 ft | 497 kts | 92° |
| 2026-05-09 02:54 | 40.60540 | -108.04594 | 36942 ft | 497 kts | 92° |
| 2026-05-09 02:54 | 40.59882 | -107.95543 | 36950 ft | 497 kts | 93° |
| 2026-05-09 02:55 | 40.59216 | -107.86491 | 36964 ft | 497 kts | 93° |
| 2026-05-09 02:55 | 40.58547 | -107.77452 | 37027 ft | 497 kts | 93° |
| 2026-05-09 02:56 | 40.57872 | -107.68413 | 37067 ft | 496 kts | 92° |
| 2026-05-09 02:56 | 40.57195 | -107.59385 | 37084 ft | 496 kts | 92° |
| 2026-05-09 02:57 | 40.56523 | -107.50364 | 37091 ft | 495 kts | 92° |
| 2026-05-09 02:57 | 40.55843 | -107.41349 | 37071 ft | 495 kts | 92° |
| 2026-05-09 02:58 | 40.55143 | -107.32339 | 37106 ft | 495 kts | 93° |
| 2026-05-09 02:58 | 40.54434 | -107.23328 | 37108 ft | 496 kts | 93° |
| 2026-05-09 02:59 | 40.53723 | -107.14327 | 37107 ft | 496 kts | 93° |
| 2026-05-09 02:59 | 40.53012 | -107.05315 | 37056 ft | 496 kts | 93° |
| 2026-05-09 02:59 | 40.52655 | -107.00806 | 36571 ft | 493 kts | 93° |
| 2026-05-09 03:00 | 40.52297 | -106.96359 | 36296 ft | 487 kts | 93° |
| 2026-05-09 03:00 | 40.51937 | -106.91945 | 36029 ft | 485 kts | 93° |
| 2026-05-09 03:00 | 40.51579 | -106.87542 | 35768 ft | 484 kts | 92° |
| 2026-05-09 03:00 | 40.51223 | -106.83144 | 35592 ft | 484 kts | 92° |
| 2026-05-09 03:01 | 40.50865 | -106.78746 | 35350 ft | 484 kts | 92° |
| 2026-05-09 03:01 | 40.50505 | -106.74347 | 35103 ft | 484 kts | 93° |
| 2026-05-09 03:01 | 40.50142 | -106.69944 | 34856 ft | 485 kts | 93° |
| 2026-05-09 03:01 | 40.49777 | -106.65533 | 34619 ft | 487 kts | 93° |
| 2026-05-09 03:02 | 40.49407 | -106.61103 | 34372 ft | 488 kts | 93° |
| 2026-05-09 03:02 | 40.49033 | -106.56669 | 34121 ft | 489 kts | 93° |
| 2026-05-09 03:02 | 40.48659 | -106.52278 | 33294 ft | 493 kts | 93° |
| 2026-05-09 03:02 | 40.48270 | -106.47775 | 32277 ft | 498 kts | 94° |
| 2026-05-09 03:03 | 40.47870 | -106.43259 | 31595 ft | 495 kts | 94° |
| 2026-05-09 03:03 | 40.47466 | -106.38806 | 30937 ft | 486 kts | 94° |
| 2026-05-09 03:03 | 40.47059 | -106.34365 | 29934 ft | 481 kts | 94° |
| 2026-05-09 03:03 | 40.46659 | -106.30044 | 29136 ft | 473 kts | 94° |
| 2026-05-09 03:04 | 40.46265 | -106.25784 | 28517 ft | 470 kts | 94° |
| 2026-05-09 03:04 | 40.45874 | -106.21533 | 27870 ft | 468 kts | 94° |
| 2026-05-09 03:04 | 40.45488 | -106.17303 | 27236 ft | 466 kts | 94° |
| 2026-05-09 03:04 | 40.45112 | -106.13155 | 26735 ft | 461 kts | 94° |
| 2026-05-09 03:05 | 40.44746 | -106.09013 | 26448 ft | 455 kts | 94° |
| 2026-05-09 03:05 | 40.44388 | -106.04898 | 26132 ft | 452 kts | 94° |
| 2026-05-09 03:05 | 40.44035 | -106.00805 | 25794 ft | 450 kts | 94° |
| 2026-05-09 03:05 | 40.43682 | -105.96733 | 25473 ft | 448 kts | 93° |
| 2026-05-09 03:06 | 40.43328 | -105.92679 | 25153 ft | 446 kts | 93° |
| 2026-05-09 03:06 | 40.42921 | -105.88649 | 24774 ft | 445 kts | 96° |
| 2026-05-09 03:06 | 40.42381 | -105.84643 | 24260 ft | 445 kts | 99° |
| 2026-05-09 03:06 | 40.41742 | -105.80674 | 23787 ft | 444 kts | 100° |
| 2026-05-09 03:07 | 40.41061 | -105.76741 | 23310 ft | 440 kts | 101° |
| 2026-05-09 03:07 | 40.40378 | -105.72854 | 22696 ft | 431 kts | 101° |
| 2026-05-09 03:07 | 40.39715 | -105.68990 | 22279 ft | 429 kts | 100° |
| 2026-05-09 03:07 | 40.39088 | -105.65205 | 22044 ft | 419 kts | 100° |
| 2026-05-09 03:08 | 40.38500 | -105.61544 | 21793 ft | 411 kts | 99° |
| 2026-05-09 03:08 | 40.37921 | -105.57872 | 21330 ft | 412 kts | 100° |
| 2026-05-09 03:08 | 40.37347 | -105.54200 | 20798 ft | 410 kts | 100° |
| 2026-05-09 03:08 | 40.36770 | -105.50549 | 20380 ft | 407 kts | 100° |
| 2026-05-09 03:09 | 40.36193 | -105.46930 | 19853 ft | 405 kts | 101° |
| 2026-05-09 03:09 | 40.35614 | -105.43344 | 19514 ft | 399 kts | 101° |
| 2026-05-09 03:09 | 40.35048 | -105.39871 | 19233 ft | 380 kts | 101° |
| 2026-05-09 03:09 | 40.34504 | -105.36539 | 18763 ft | 369 kts | 101° |
| 2026-05-09 03:10 | 40.34005 | -105.33246 | 18381 ft | 366 kts | 99° |
| 2026-05-09 03:10 | 40.33558 | -105.29969 | 17920 ft | 364 kts | 99° |
| 2026-05-09 03:10 | 40.33138 | -105.26726 | 17469 ft | 358 kts | 98° |
| 2026-05-09 03:10 | 40.32726 | -105.23508 | 16655 ft | 358 kts | 99° |
| 2026-05-09 03:11 | 40.32312 | -105.20314 | 16094 ft | 353 kts | 99° |
| 2026-05-09 03:11 | 40.31894 | -105.17161 | 15551 ft | 351 kts | 99° |
| 2026-05-09 03:11 | 40.31465 | -105.13999 | 15089 ft | 352 kts | 99° |
| 2026-05-09 03:11 | 40.31035 | -105.10862 | 14778 ft | 348 kts | 99° |
| 2026-05-09 03:12 | 40.30610 | -105.07764 | 14151 ft | 344 kts | 99° |
| 2026-05-09 03:12 | 40.30187 | -105.04693 | 13480 ft | 341 kts | 99° |
| 2026-05-09 03:12 | 40.29774 | -105.01715 | 13266 ft | 322 kts | 99° |
| 2026-05-09 03:12 | 40.29387 | -104.98921 | 13067 ft | 302 kts | 99° |
| 2026-05-09 03:13 | 40.28660 | -104.93653 | 12773 ft | 288 kts | 99° |
| 2026-05-09 03:13 | 40.28306 | -104.91069 | 12473 ft | 288 kts | 99° |
| 2026-05-09 03:13 | 40.27951 | -104.88493 | 12192 ft | 287 kts | 99° |
| 2026-05-09 03:14 | 40.27599 | -104.85932 | 11918 ft | 285 kts | 99° |
| 2026-05-09 03:14 | 40.27247 | -104.83387 | 11647 ft | 283 kts | 100° |
| 2026-05-09 03:14 | 40.26899 | -104.80858 | 11377 ft | 282 kts | 100° |
| 2026-05-09 03:14 | 40.26551 | -104.78342 | 11107 ft | 280 kts | 100° |
| 2026-05-09 03:15 | 40.26018 | -104.75921 | 10946 ft | 273 kts | 115° |
| 2026-05-09 03:15 | 40.25218 | -104.73678 | 10766 ft | 273 kts | 116° |
| 2026-05-09 03:15 | 40.24251 | -104.71562 | 10497 ft | 269 kts | 132° |
| 2026-05-09 03:15 | 40.22897 | -104.69930 | 10265 ft | 262 kts | 149° |
| 2026-05-09 03:16 | 40.21297 | -104.68852 | 10030 ft | 256 kts | 164° |
| 2026-05-09 03:16 | 40.19590 | -104.68378 | 9910 ft | 250 kts | 180° |
| 2026-05-09 03:16 | 40.17860 | -104.68375 | 9906 ft | 249 kts | 184° |
| 2026-05-09 03:16 | 40.16121 | -104.68392 | 9906 ft | 250 kts | 184° |
| 2026-05-09 03:17 | 40.14374 | -104.68408 | 9670 ft | 252 kts | 184° |
| 2026-05-09 03:17 | 40.12612 | -104.68419 | 9339 ft | 252 kts | 183° |
| 2026-05-09 03:17 | 40.10869 | -104.68433 | 9058 ft | 250 kts | 183° |
| 2026-05-09 03:17 | 40.09175 | -104.68451 | 8902 ft | 234 kts | 183° |
| 2026-05-09 03:18 | 40.07593 | -104.68469 | 8777 ft | 220 kts | 183° |
| 2026-05-09 03:18 | 40.06089 | -104.68488 | 8494 ft | 214 kts | 182° |
| 2026-05-09 03:18 | 40.04607 | -104.68506 | 8213 ft | 210 kts | 182° |
| 2026-05-09 03:18 | 40.03167 | -104.68523 | 7956 ft | 205 kts | 182° |
| 2026-05-09 03:19 | 40.01754 | -104.68539 | 7701 ft | 201 kts | 181° |
| 2026-05-09 03:19 | 40.00363 | -104.68556 | 7454 ft | 199 kts | 181° |
| 2026-05-09 03:19 | 39.98996 | -104.68572 | 7209 ft | 192 kts | 180° |
| 2026-05-09 03:19 | 39.97718 | -104.68587 | 6990 ft | 173 kts | 180° |
| 2026-05-09 03:20 | 39.96591 | -104.68600 | 6793 ft | 154 kts | 180° |
| 2026-05-09 03:20 | 39.95553 | -104.68612 | 6619 ft | 146 kts | 179° |
| 2026-05-09 03:20 | 39.94553 | -104.68624 | 6434 ft | 143 kts | 179° |
| 2026-05-09 03:20 | 39.93558 | -104.68635 | 6222 ft | 143 kts | 179° |
| 2026-05-09 03:21 | 39.92556 | -104.68647 | 6023 ft | 144 kts | 178° |
| 2026-05-09 03:21 | 39.91554 | -104.68662 | 5801 ft | 144 kts | 178° |
| 2026-05-09 03:21 | 39.90575 | -104.68675 | 5553 ft | 142 kts | 178° |
| 2026-05-09 03:21 | 39.89585 | -104.68683 | 5371 ft | 142 kts | 178° |
| 2026-05-09 03:22 | 39.88736 | -104.68687 | 5360 ft | 98 kts | 180° |
| 2026-05-09 03:22 | 39.88227 | -104.68694 | 5361 ft | 52 kts | 181° |
| 2026-05-09 03:22 | 39.87884 | -104.68687 | 5362 ft | 44 kts | 173° |
| 2026-05-09 03:22 | 39.87649 | -104.68579 | 5361 ft | 31 kts | 148° |
| 2026-05-09 03:23 | 39.87497 | -104.68493 | 5362 ft | 20 kts | 180° |
| 2026-05-09 03:23 | 39.87350 | -104.68494 | 5362 ft | 22 kts | 180° |
| 2026-05-09 03:23 | 39.87194 | -104.68496 | 5362 ft | 23 kts | 181° |
| 2026-05-09 03:23 | 39.87028 | -104.68499 | 5362 ft | 24 kts | 180° |
| 2026-05-09 03:24 | 39.86854 | -104.68500 | 5362 ft | 26 kts | 180° |
| 2026-05-09 03:24 | 39.86672 | -104.68503 | 5363 ft | 27 kts | 180° |
| 2026-05-09 03:24 | 39.86483 | -104.68504 | 5362 ft | 28 kts | 180° |
| 2026-05-09 03:24 | 39.86289 | -104.68506 | 5365 ft | 27 kts | 180° |
| 2026-05-09 03:25 | 39.86162 | -104.68499 | 5368 ft | 15 kts | 157° |
| 2026-05-09 03:25 | 39.86138 | -104.68390 | 5371 ft | 14 kts | 90° |
| 2026-05-09 03:25 | 39.86137 | -104.68228 | 5370 ft | 21 kts | 90° |
| 2026-05-09 03:25 | 39.86136 | -104.68038 | 5372 ft | 21 kts | 90° |
| 2026-05-09 03:26 | 39.86134 | -104.67848 | 5374 ft | 22 kts | 91° |
| 2026-05-09 03:26 | 39.86105 | -104.67691 | 5378 ft | 17 kts | 136° |
| 2026-05-09 03:26 | 39.86000 | -104.67658 | 5380 ft | 14 kts | 181° |
| 2026-05-09 03:26 | 39.85943 | -104.67659 | 5376 ft | 3 kts | 180° |
| 2026-05-09 03:27 | 39.85939 | -104.67659 | 5377 ft | 0 kts | 180° |